createdAt,value
2022-11-30T00:01:20.199Z,57.53
2022-11-30T00:03:47.632Z,58.40
2022-11-30T00:06:16.260Z,64.25
2022-11-30T00:08:42.910Z,59.38
2022-11-30T00:11:14.848Z,61.33
2022-11-30T00:13:41.927Z,60.03
2022-11-30T00:16:08.697Z,60.22
2022-11-30T00:18:36.003Z,60.30
2022-11-30T00:21:08.503Z,58.30
2022-11-30T00:23:36.666Z,60.40
2022-11-30T00:26:05.164Z,60.88
2022-11-30T00:28:35.810Z,68.07
2022-11-30T00:31:09.882Z,65.75
2022-11-30T00:33:38.245Z,61.00
2022-11-30T00:36:13.346Z,64.30
2022-11-30T00:38:40.501Z,60.22
2022-11-30T00:41:07.828Z,62.72
2022-11-30T00:43:34.612Z,63.10
2022-11-30T00:46:01.344Z,68.47
2022-11-30T00:48:28.549Z,68.15
2022-11-30T00:50:55.107Z,63.28
2022-11-30T00:53:22.392Z,67.65
2022-11-30T00:55:49.072Z,66.00
2022-11-30T00:58:15.771Z,64.80
2022-11-30T01:00:42.937Z,58.03
2022-11-30T01:03:10.447Z,56.47
2022-11-30T01:05:37.094Z,54.67
2022-11-30T01:08:05.545Z,55.92
2022-11-30T01:10:33.915Z,56.08
2022-11-30T01:13:01.016Z,56.47
2022-11-30T01:15:27.949Z,59.55
2022-11-30T01:17:54.644Z,56.05
2022-11-30T01:20:21.799Z,57.70
2022-11-30T01:22:48.407Z,55.50
2022-11-30T01:25:15.046Z,59.47
2022-11-30T01:27:41.656Z,58.25
2022-11-30T01:30:08.898Z,53.40
2022-11-30T01:32:35.562Z,54.10
2022-11-30T01:35:02.286Z,52.00
2022-11-30T01:37:30.017Z,55.58
2022-11-30T01:39:57.164Z,50.45
2022-11-30T01:42:24.356Z,54.17
2022-11-30T01:44:55.046Z,54.30
2022-11-30T01:47:28.292Z,54.33
2022-11-30T01:50:12.970Z,52.60
2022-11-30T01:52:43.755Z,51.40
2022-11-30T01:55:19.914Z,50.88
2022-11-30T01:57:55.477Z,53.58
2022-11-30T02:00:22.192Z,55.30
2022-11-30T02:03:12.104Z,54.15
2022-11-30T02:05:41.235Z,53.00
2022-11-30T02:08:10.754Z,56.53
2022-11-30T02:10:41.941Z,56.88
2022-11-30T02:13:44.637Z,56.22
2022-11-30T02:16:45.295Z,57.88
2022-11-30T02:19:30.353Z,58.40
2022-11-30T02:22:02.882Z,56.40
2022-11-30T02:25:07.220Z,57.42
2022-11-30T02:27:53.751Z,58.17
2022-11-30T02:30:23.240Z,55.92
2022-11-30T02:33:13.173Z,60.00
2022-11-30T02:35:43.176Z,61.17
2022-11-30T02:38:11.141Z,61.63
2022-11-30T02:40:38.153Z,59.17
2022-11-30T02:43:06.720Z,62.05
2022-11-30T02:45:47.753Z,65.07
2022-11-30T02:48:18.343Z,61.90
2022-11-30T02:50:49.521Z,65.32
2022-11-30T02:53:16.384Z,60.53
2022-11-30T02:55:43.070Z,59.38
2022-11-30T02:58:16.718Z,63.30
2022-11-30T03:00:43.454Z,58.40
2022-11-30T03:03:10.060Z,52.90
2022-11-30T03:05:36.989Z,53.97
2022-11-30T03:08:03.566Z,53.97
2022-11-30T03:10:30.154Z,49.15
2022-11-30T03:13:00.315Z,43.95
2022-11-30T03:15:27.232Z,40.38
2022-11-30T03:17:53.809Z,37.45
2022-11-30T03:20:20.385Z,34.30
2022-11-30T03:22:46.959Z,37.70
2022-11-30T03:25:13.549Z,33.45
2022-11-30T03:27:40.130Z,31.08
2022-11-30T03:30:07.675Z,32.90
2022-11-30T03:32:34.255Z,31.38
2022-11-30T03:35:00.846Z,31.08
2022-11-30T03:37:27.425Z,28.92
2022-11-30T03:39:58.143Z,29.02
2022-11-30T03:42:25.204Z,26.98
2022-11-30T03:44:51.869Z,29.40
2022-11-30T03:47:18.486Z,31.05
2022-11-30T03:49:45.101Z,27.88
2022-11-30T03:52:11.662Z,28.45
2022-11-30T03:54:38.240Z,27.13
2022-11-30T03:57:04.852Z,27.48
2022-11-30T03:59:31.712Z,27.20
2022-11-30T04:01:58.477Z,30.23
2022-11-30T04:04:25.147Z,33.25
2022-11-30T04:06:51.724Z,35.03
2022-11-30T04:09:18.306Z,35.30
2022-11-30T04:11:44.896Z,33.67
2022-11-30T04:14:11.571Z,36.08
2022-11-30T04:16:38.280Z,36.28
2022-11-30T04:19:04.899Z,35.88
2022-11-30T04:21:32.033Z,37.80
2022-11-30T04:23:58.778Z,40.75
2022-11-30T04:26:25.597Z,39.08
2022-11-30T04:28:52.184Z,39.95
2022-11-30T04:31:18.826Z,39.70
2022-11-30T04:33:45.461Z,38.70
2022-11-30T04:36:20.008Z,41.08
2022-11-30T04:38:47.583Z,40.10
2022-11-30T04:41:14.296Z,40.58
2022-11-30T04:43:40.964Z,38.85
2022-11-30T04:46:07.702Z,40.97
2022-11-30T04:48:34.880Z,45.55
2022-11-30T04:51:03.451Z,37.72
2022-11-30T04:53:30.128Z,40.45
2022-11-30T04:55:56.742Z,46.38
2022-11-30T04:58:23.528Z,46.78
2022-11-30T05:00:52.958Z,49.13
2022-11-30T05:03:19.538Z,47.30
2022-11-30T05:05:46.161Z,46.65
2022-11-30T05:08:12.752Z,43.83
2022-11-30T05:10:39.327Z,44.28
2022-11-30T05:13:05.919Z,47.58
2022-11-30T05:15:32.992Z,44.45
2022-11-30T05:18:01.073Z,42.45
2022-11-30T05:20:31.008Z,43.45
2022-11-30T05:22:57.774Z,40.58
2022-11-30T05:25:24.522Z,41.00
2022-11-30T05:27:51.128Z,40.67
2022-11-30T05:30:17.805Z,37.88
2022-11-30T05:32:44.455Z,39.63
2022-11-30T05:35:11.357Z,38.85
2022-11-30T05:37:37.948Z,37.30
2022-11-30T05:40:05.173Z,39.35
2022-11-30T05:42:32.135Z,39.83
2022-11-30T05:44:58.738Z,41.35
2022-11-30T05:47:25.370Z,39.22
2022-11-30T05:49:51.995Z,44.35
2022-11-30T05:52:18.589Z,48.03
2022-11-30T05:54:45.326Z,39.95
2022-11-30T05:57:12.118Z,36.63
2022-11-30T05:59:38.704Z,37.75
2022-11-30T06:02:05.381Z,38.65
2022-11-30T06:04:33.723Z,35.70
2022-11-30T06:07:00.356Z,38.83
2022-11-30T06:09:27.069Z,36.70
2022-11-30T06:11:53.644Z,41.00
2022-11-30T06:14:20.184Z,45.20
2022-11-30T06:16:46.851Z,46.88
2022-11-30T06:19:13.517Z,46.40
2022-11-30T06:21:40.105Z,43.92
2022-11-30T06:24:07.001Z,45.40
2022-11-30T06:26:33.675Z,45.75
2022-11-30T06:29:00.660Z,46.40
2022-11-30T06:31:27.322Z,46.67
2022-11-30T06:33:57.584Z,51.03
2022-11-30T06:36:24.348Z,47.03
2022-11-30T06:38:51.306Z,50.58
2022-11-30T06:41:18.076Z,52.78
2022-11-30T06:43:44.799Z,47.90
2022-11-30T06:46:11.521Z,50.30
2022-11-30T06:48:38.729Z,48.70
2022-11-30T06:51:06.909Z,50.22
2022-11-30T06:53:33.565Z,54.45
2022-11-30T06:56:09.606Z,75.93
2022-11-30T06:58:41.116Z,65.90
2022-11-30T07:01:11.375Z,62.33
2022-11-30T07:03:38.619Z,65.68
2022-11-30T07:06:10.807Z,54.72
2022-11-30T07:08:38.012Z,75.65
2022-11-30T07:11:06.066Z,71.05
2022-11-30T07:13:33.341Z,81.63
2022-11-30T07:16:02.991Z,82.15
2022-11-30T07:18:32.154Z,77.65
2022-11-30T07:21:00.921Z,86.43
2022-11-30T07:23:50.761Z,85.72
2022-11-30T07:26:21.969Z,74.18
2022-11-30T07:28:54.492Z,59.80
2022-11-30T07:31:24.010Z,53.80
2022-11-30T07:33:51.388Z,56.17
2022-11-30T07:36:20.151Z,55.30
2022-11-30T07:38:47.397Z,63.20
2022-11-30T07:41:14.376Z,60.80
2022-11-30T07:43:41.308Z,67.22
2022-11-30T07:46:11.299Z,56.78
2022-11-30T07:48:37.917Z,56.72
2022-11-30T07:51:12.012Z,58.03
2022-11-30T07:53:38.717Z,57.28
2022-11-30T07:56:07.844Z,70.15
2022-11-30T07:58:35.056Z,66.70
2022-11-30T08:01:07.540Z,71.40
2022-11-30T08:03:37.096Z,66.95
2022-11-30T08:06:10.076Z,64.93
2022-11-30T08:08:39.380Z,77.60
2022-11-30T08:11:07.762Z,83.45
2022-11-30T08:13:34.789Z,85.97
2022-11-30T08:16:07.573Z,80.97
2022-11-30T08:18:34.595Z,73.18
2022-11-30T08:21:03.725Z,62.38
2022-11-30T08:23:32.280Z,88.30
2022-11-30T08:26:06.420Z,93.88
2022-11-30T08:28:35.939Z,98.60
2022-11-30T08:31:08.487Z,87.35
2022-11-30T08:33:36.741Z,74.30
2022-11-30T08:36:11.965Z,72.78
2022-11-30T08:38:39.920Z,55.75
2022-11-30T08:41:07.483Z,60.75
2022-11-30T08:43:34.578Z,73.55
2022-11-30T08:46:27.504Z,62.15
2022-11-30T08:49:12.588Z,53.03
2022-11-30T08:52:08.831Z,68.95
2022-11-30T08:54:27.259Z,53.45
2022-11-30T08:56:53.869Z,49.97
2022-11-30T08:59:20.522Z,55.92
2022-11-30T09:01:47.103Z,52.67
2022-11-30T09:04:13.708Z,52.00
2022-11-30T09:06:40.403Z,52.60
2022-11-30T09:09:06.979Z,42.10
2022-11-30T09:11:33.946Z,42.30
2022-11-30T09:14:04.347Z,43.15
2022-11-30T09:16:31.093Z,47.17
2022-11-30T09:18:57.856Z,47.80
2022-11-30T09:21:25.569Z,55.33
2022-11-30T09:23:52.540Z,51.22
2022-11-30T09:26:21.032Z,53.80
2022-11-30T09:28:48.508Z,64.70
2022-11-30T09:31:18.840Z,54.83
2022-11-30T09:33:45.836Z,45.45
2022-11-30T09:36:14.637Z,46.03
2022-11-30T09:38:44.580Z,44.97
2022-11-30T09:41:29.726Z,42.60
2022-11-30T09:44:13.386Z,45.28
2022-11-30T09:46:47.949Z,41.67
2022-11-30T09:49:26.687Z,43.88
2022-11-30T09:51:56.707Z,45.17
2022-11-30T09:54:38.853Z,48.05
2022-11-30T09:57:20.673Z,51.40
2022-11-30T09:59:59.184Z,63.30
2022-11-30T10:02:30.466Z,57.25
2022-11-30T10:04:57.954Z,55.17
2022-11-30T10:07:51.914Z,59.10
2022-11-30T10:10:33.287Z,55.80
2022-11-30T10:13:24.943Z,51.97
2022-11-30T10:15:57.496Z,49.58
2022-11-30T10:18:45.339Z,50.90
2022-11-30T10:21:15.001Z,48.75
2022-11-30T10:24:10.696Z,56.75
2022-11-30T10:29:18.759Z,53.25
2022-11-30T10:31:49.070Z,54.15
2022-11-30T10:34:40.528Z,62.05
2022-11-30T10:37:19.936Z,44.85
2022-11-30T10:40:01.971Z,51.13
2022-11-30T10:42:38.075Z,49.95
2022-11-30T10:45:10.046Z,62.33
2022-11-30T10:47:42.544Z,56.53
2022-11-30T10:50:15.114Z,52.47
2022-11-30T10:52:52.188Z,55.85
2022-11-30T10:55:22.164Z,60.17
2022-11-30T10:57:51.056Z,46.55
2022-11-30T11:00:18.164Z,47.00
2022-11-30T11:02:47.783Z,51.72
2022-11-30T11:05:24.997Z,65.65
2022-11-30T11:07:59.812Z,50.70
2022-11-30T11:10:51.391Z,58.70
2022-11-30T11:13:39.012Z,49.50
2022-11-30T11:16:08.773Z,54.55
2022-11-30T11:18:37.158Z,49.17
2022-11-30T11:21:07.412Z,37.28
2022-11-30T11:23:40.398Z,34.38
2022-11-30T11:26:15.585Z,38.10
2022-11-30T11:28:45.667Z,37.47
2022-11-30T11:31:35.825Z,38.83
2022-11-30T11:34:04.041Z,44.35
2022-11-30T11:36:34.114Z,40.33
2022-11-30T11:39:01.684Z,40.17
2022-11-30T11:41:33.636Z,35.22
2022-11-30T11:44:09.449Z,38.55
2022-11-30T11:46:57.394Z,42.90
2022-11-30T11:49:36.701Z,44.47
2022-11-30T11:52:17.640Z,36.60
2022-11-30T11:55:05.714Z,34.42
2022-11-30T11:57:48.085Z,45.47
2022-11-30T12:00:19.469Z,53.55
2022-11-30T12:02:54.380Z,52.15
2022-11-30T12:05:27.941Z,74.30
2022-11-30T12:08:27.968Z,66.30
2022-11-30T12:11:43.338Z,53.25
2022-11-30T12:14:16.505Z,40.83
2022-11-30T12:17:06.276Z,49.50
2022-11-30T12:19:41.443Z,47.15
2022-11-30T12:22:38.911Z,40.97
2022-11-30T12:25:23.743Z,41.97
2022-11-30T12:28:19.799Z,38.92
2022-11-30T12:30:46.369Z,37.03
2022-11-30T12:33:54.450Z,31.27
2022-11-30T12:36:43.772Z,29.45
2022-11-30T12:39:41.616Z,34.78
2022-11-30T12:42:33.062Z,31.98
2022-11-30T12:45:24.809Z,37.65
2022-11-30T12:48:06.384Z,48.97
2022-11-30T12:51:01.689Z,45.90
2022-11-30T12:53:47.149Z,35.05
2022-11-30T12:56:41.373Z,39.75
2022-11-30T12:59:47.976Z,36.22
2022-11-30T13:02:40.497Z,30.95
2022-11-30T13:05:12.619Z,34.55
2022-11-30T13:07:56.695Z,28.63
2022-11-30T13:10:42.779Z,29.08
2022-11-30T13:13:16.372Z,30.30
2022-11-30T13:15:44.814Z,30.58
2022-11-30T13:18:17.723Z,32.17
2022-11-30T13:21:06.311Z,33.83
2022-11-30T13:24:01.610Z,30.38
2022-11-30T13:27:00.520Z,30.10
2022-11-30T13:30:02.904Z,27.85
2022-11-30T13:32:57.199Z,26.20
2022-11-30T13:35:40.354Z,28.10
2022-11-30T13:38:36.344Z,26.60
2022-11-30T13:41:06.845Z,30.67
2022-11-30T13:43:47.844Z,30.45
2022-11-30T13:46:14.933Z,25.83
2022-11-30T13:48:43.952Z,26.08
2022-11-30T13:51:11.726Z,25.98
2022-11-30T13:53:39.326Z,29.23
2022-11-30T13:56:17.624Z,31.58
2022-11-30T13:59:24.426Z,25.92
2022-11-30T14:01:52.333Z,26.23
2022-11-30T14:04:18.986Z,26.40
2022-11-30T14:06:58.259Z,25.10
2022-11-30T14:09:37.093Z,25.95
2022-11-30T14:12:36.740Z,25.92
2022-11-30T14:15:43.410Z,26.38
2022-11-30T14:18:10.295Z,25.10
2022-11-30T14:21:00.752Z,25.25
2022-11-30T14:23:39.133Z,27.40
2022-11-30T14:26:15.172Z,26.90
2022-11-30T14:28:53.712Z,27.70
2022-11-30T14:31:26.467Z,31.77
2022-11-30T14:34:02.398Z,27.48
2022-11-30T14:36:35.875Z,25.63
2022-11-30T14:39:02.646Z,29.75
2022-11-30T14:41:31.006Z,29.65
2022-11-30T14:44:15.961Z,31.95
2022-11-30T14:46:42.788Z,31.30
2022-11-30T14:49:17.069Z,29.20
2022-11-30T14:51:48.242Z,28.88
2022-11-30T14:54:39.225Z,29.30
2022-11-30T14:57:15.885Z,29.33
2022-11-30T14:59:47.444Z,26.83
2022-11-30T15:02:31.398Z,30.08
2022-11-30T15:04:58.992Z,28.15
2022-11-30T15:07:27.338Z,25.25
2022-11-30T15:10:06.625Z,26.92
2022-11-30T15:12:34.113Z,25.92
2022-11-30T15:15:27.649Z,26.30
2022-11-30T15:18:14.980Z,26.60
2022-11-30T15:20:48.003Z,26.42
2022-11-30T15:23:15.782Z,25.40
2022-11-30T15:25:48.325Z,26.15
2022-11-30T15:28:30.440Z,23.98
2022-11-30T15:31:00.375Z,22.17
2022-11-30T15:33:50.188Z,28.48
2022-11-30T15:36:34.016Z,34.75
2022-11-30T15:39:07.183Z,35.28
2022-11-30T15:41:35.454Z,33.95
2022-11-30T15:44:02.329Z,30.10
2022-11-30T15:46:44.512Z,29.70
2022-11-30T15:49:12.840Z,34.08
2022-11-30T15:51:47.474Z,35.83
2022-11-30T15:54:15.205Z,37.72
2022-11-30T15:56:54.392Z,37.50
2022-11-30T15:59:23.637Z,44.53
2022-11-30T16:02:14.279Z,37.33
2022-11-30T16:05:10.859Z,46.88
2022-11-30T16:07:51.338Z,46.53
2022-11-30T16:10:24.480Z,48.88
2022-11-30T16:12:53.278Z,43.95
2022-11-30T16:15:23.173Z,43.78
2022-11-30T16:17:51.018Z,46.15
2022-11-30T16:20:17.887Z,48.58
2022-11-30T16:22:46.425Z,46.00
2022-11-30T16:25:15.052Z,40.80
2022-11-30T16:27:41.922Z,36.15
2022-11-30T16:30:13.879Z,35.88
2022-11-30T16:32:40.548Z,33.38
2022-11-30T16:35:25.076Z,34.28
2022-11-30T16:37:52.005Z,33.97
2022-11-30T16:40:19.385Z,33.60
2022-11-30T16:42:49.016Z,30.77
2022-11-30T16:45:23.707Z,30.75
2022-11-30T16:47:51.734Z,26.65
2022-11-30T16:50:19.432Z,23.50
2022-11-30T16:52:46.305Z,22.00
2022-11-30T16:55:20.376Z,23.65
2022-11-30T16:57:47.920Z,22.13
2022-11-30T17:00:18.180Z,24.10
2022-11-30T17:02:55.387Z,25.35
2022-11-30T17:05:22.444Z,21.80
2022-11-30T17:07:49.085Z,21.48
2022-11-30T17:10:15.881Z,21.65
2022-11-30T17:12:42.510Z,22.23
2022-11-30T17:15:17.598Z,24.15
2022-11-30T17:17:44.593Z,23.13
2022-11-30T17:20:13.276Z,23.73
2022-11-30T17:22:40.555Z,23.98
2022-11-30T17:25:11.596Z,24.85
2022-11-30T17:27:38.189Z,25.65
2022-11-30T17:30:05.694Z,26.05
2022-11-30T17:32:32.485Z,25.73
2022-11-30T17:34:59.047Z,28.77
2022-11-30T17:37:26.426Z,30.95
2022-11-30T17:39:52.990Z,28.70
2022-11-30T17:42:19.752Z,29.08
2022-11-30T17:44:46.829Z,26.92
2022-11-30T17:47:13.728Z,26.08
2022-11-30T17:49:40.944Z,28.85
2022-11-30T17:52:07.542Z,29.95
2022-11-30T17:54:34.344Z,29.83
2022-11-30T17:57:01.685Z,29.60
2022-11-30T17:59:28.365Z,29.80
2022-11-30T18:01:55.001Z,28.05
2022-11-30T18:04:21.850Z,30.67
2022-11-30T18:06:48.526Z,29.70
2022-11-30T18:09:15.113Z,30.63
2022-11-30T18:11:41.817Z,29.23
2022-11-30T18:14:08.435Z,28.20
2022-11-30T18:16:36.966Z,27.45
2022-11-30T18:19:14.437Z,28.75
2022-11-30T18:21:43.985Z,28.40
2022-11-30T18:24:11.910Z,29.92
2022-11-30T18:26:39.408Z,30.60
2022-11-30T18:29:06.705Z,32.10
2022-11-30T18:31:33.728Z,32.78
2022-11-30T18:34:04.275Z,30.50
2022-11-30T18:36:31.965Z,33.90
2022-11-30T18:38:59.161Z,31.45
2022-11-30T18:41:26.379Z,33.60
2022-11-30T18:43:53.524Z,34.90
2022-11-30T18:46:20.854Z,38.28
2022-11-30T18:48:51.983Z,36.75
2022-11-30T18:51:20.972Z,37.30
2022-11-30T18:53:47.686Z,42.85
2022-11-30T18:56:20.271Z,38.70
2022-11-30T18:58:48.011Z,38.00
2022-11-30T19:01:17.119Z,37.45
2022-11-30T19:03:48.708Z,35.10
2022-11-30T19:06:15.305Z,34.60
2022-11-30T19:08:41.996Z,38.92
2022-11-30T19:11:09.893Z,41.70
2022-11-30T19:13:36.780Z,37.50
2022-11-30T19:16:12.940Z,34.67
2022-11-30T19:18:39.897Z,34.42
2022-11-30T19:21:08.623Z,34.15
2022-11-30T19:23:36.682Z,34.38
2022-11-30T19:26:04.033Z,36.47
2022-11-30T19:28:32.082Z,34.10
2022-11-30T19:30:59.408Z,37.65
2022-11-30T19:33:27.182Z,37.15
2022-11-30T19:35:59.185Z,37.03
2022-11-30T19:38:25.774Z,37.50
2022-11-30T19:40:52.337Z,36.38
2022-11-30T19:43:18.924Z,30.58
2022-11-30T19:45:45.627Z,33.72
2022-11-30T19:48:12.242Z,36.75
2022-11-30T19:50:38.880Z,43.20
2022-11-30T19:53:05.600Z,33.75
2022-11-30T19:55:32.781Z,32.58
2022-11-30T19:57:59.499Z,33.35
2022-11-30T20:00:26.139Z,35.05
2022-11-30T20:02:52.785Z,33.08
2022-11-30T20:05:20.495Z,30.85
2022-11-30T20:07:47.293Z,33.13
2022-11-30T20:10:14.026Z,35.83
2022-11-30T20:12:41.156Z,32.70
2022-11-30T20:15:08.616Z,30.17
2022-11-30T20:17:35.285Z,31.45
2022-11-30T20:20:02.202Z,30.50
2022-11-30T20:22:29.124Z,32.30
2022-11-30T20:24:56.164Z,34.05
2022-11-30T20:27:24.596Z,36.08
2022-11-30T20:29:52.040Z,38.70
2022-11-30T20:32:19.596Z,34.47
2022-11-30T20:34:47.061Z,39.90
2022-11-30T20:37:15.441Z,39.72
2022-11-30T20:39:45.726Z,42.90
2022-11-30T20:42:13.089Z,41.78
2022-11-30T20:44:39.805Z,48.92
2022-11-30T20:47:06.460Z,52.45
2022-11-30T20:49:33.033Z,53.50
2022-11-30T20:51:59.996Z,53.67
2022-11-30T20:54:29.690Z,55.63
2022-11-30T20:56:58.729Z,57.30
2022-11-30T20:59:26.718Z,51.42
2022-11-30T21:01:55.578Z,51.92
2022-11-30T21:04:23.963Z,49.28
2022-11-30T21:06:50.570Z,50.60
2022-11-30T21:09:18.972Z,52.28
2022-11-30T21:11:46.700Z,50.40
2022-11-30T21:14:13.583Z,54.05
2022-11-30T21:16:40.921Z,54.42
2022-11-30T21:19:07.584Z,52.92
2022-11-30T21:21:35.425Z,54.97
2022-11-30T21:24:05.111Z,52.63
2022-11-30T21:26:41.280Z,56.58
2022-11-30T21:29:12.215Z,60.88
2022-11-30T21:31:39.229Z,58.42
2022-11-30T21:34:06.193Z,54.28
2022-11-30T21:36:33.274Z,46.55
2022-11-30T21:39:06.811Z,38.88
2022-11-30T21:41:39.576Z,39.20
2022-11-30T21:44:10.628Z,34.33
2022-11-30T21:46:37.606Z,38.80
2022-11-30T21:49:04.284Z,35.33
2022-11-30T21:51:34.229Z,40.55
2022-11-30T21:54:03.173Z,39.35
2022-11-30T21:56:32.381Z,39.45
2022-11-30T21:58:59.679Z,39.08
2022-11-30T22:01:31.934Z,37.17
2022-11-30T22:04:00.104Z,39.47
2022-11-30T22:06:28.950Z,40.38
2022-11-30T22:08:57.423Z,43.13
2022-11-30T22:11:24.042Z,44.83
2022-11-30T22:13:54.417Z,41.03
2022-11-30T22:16:23.756Z,42.78
2022-11-30T22:18:55.106Z,42.50
2022-11-30T22:21:27.318Z,40.05
2022-11-30T22:23:56.297Z,37.60
2022-11-30T22:26:25.111Z,37.72
2022-11-30T22:28:53.217Z,42.80
2022-11-30T22:31:21.752Z,41.72
2022-11-30T22:33:48.808Z,44.45
2022-11-30T22:36:21.460Z,47.38
2022-11-30T22:38:52.687Z,49.88
2022-11-30T22:41:19.358Z,48.15
2022-11-30T22:43:47.030Z,45.88
2022-11-30T22:46:20.095Z,61.05
2022-11-30T22:48:47.203Z,54.25
2022-11-30T22:51:19.409Z,56.47
2022-11-30T22:53:47.541Z,54.00
2022-11-30T22:56:16.616Z,55.22
2022-11-30T22:58:43.974Z,58.53
2022-11-30T23:01:12.073Z,62.00
2022-11-30T23:03:40.167Z,63.80
2022-11-30T23:06:07.794Z,65.95
2022-11-30T23:08:35.614Z,60.42
2022-11-30T23:11:07.593Z,60.88
2022-11-30T23:13:34.245Z,56.95
2022-11-30T23:16:01.584Z,61.55
2022-11-30T23:18:36.803Z,56.63
2022-11-30T23:21:12.231Z,56.63
2022-11-30T23:23:38.838Z,63.45
2022-11-30T23:26:14.023Z,65.38
2022-11-30T23:28:41.572Z,63.00
2022-11-30T23:31:32.599Z,62.55
2022-11-30T23:34:00.197Z,61.60
2022-11-30T23:36:27.335Z,57.35
2022-11-30T23:39:00.488Z,60.70
2022-11-30T23:41:27.942Z,61.38
2022-11-30T23:43:55.075Z,63.08
2022-11-30T23:46:22.322Z,71.65
2022-11-30T23:48:49.164Z,71.40
2022-11-30T23:51:15.776Z,67.32
2022-11-30T23:53:42.761Z,64.20
2022-11-30T23:56:13.139Z,59.97
2022-11-30T23:58:39.777Z,54.78
